This is the latest recevied weather packets stored in our database for station/object JA1RBY-13. If no packets are shown the sender has not sent any weather packets the latest 10 day(s).
| Time | Temp. | Humidity | Pressure | Rain* | Wind** | Luminosity | Snow |
|---|---|---|---|---|---|---|---|
| 1777489057 | 13.89° C | 63% | 1020.4 hPa | 0 mm | - | - | - |
| 1777468358 | 15° C | 66% | 1018.1 hPa | 0 mm | - | - | - |
| 1777466557 | 15.56° C | 66% | 1017.8 hPa | 0 mm | - | - | - |
| 1777465657 | 15.56° C | 65% | 1017.7 hPa | 0 mm | - | - | - |
| 1777459357 | 16.11° C | 63% | 1016 hPa | 0 mm | - | - | - |
| 1777444057 | 18.89° C | 62% | 1011.9 hPa | 0 mm | - | - | - |
| 1777443157 | 18.89° C | 62% | 1012 hPa | 0 mm | - | - | - |
| 1777439557 | 20.56° C | 58% | 1011.2 hPa | 0 mm | - | - | - |
| 1777435957 | 22.22° C | 56% | 1011.5 hPa | 0 mm | - | - | - |
| 1777435057 | 21.67° C | 55% | 1011.3 hPa | 0 mm | - | - | - |
| 1777426057 | 19.44° C | 60% | 1012.1 hPa | 0 mm | - | - | - |
| 1777420657 | 18.33° C | 63% | 1011.6 hPa | 0 mm | - | - | - |
| 1777385557 | 20° C | 65% | 1009.5 hPa | 0 mm | - | - | - |
| 1777371158 | 20° C | 58% | 1009 hPa | 0 mm | - | - | - |
| 1777370257 | 20° C | 58% | 1008.9 hPa | 0 mm | - | - | - |
| 1777362157 | 22.78° C | 47% | 1008.4 hPa | 0 mm | - | - | - |
| 1777361257 | 22.78° C | 46% | 1008.3 hPa | 0 mm | - | - | - |
| 1777360356 | 23.33° C | 46% | 1008.3 hPa | 0 mm | - | - | - |
| 1777358557 | 23.89° C | 46% | 1008.1 hPa | 0 mm | - | - | - |
| 1777357657 | 23.89° C | 48% | 1008.1 hPa | 0 mm | - | - | - |
| 1777356756 | 23.33° C | 49% | 1008.4 hPa | 0 mm | - | - | - |
| 1777355857 | 22.78° C | 50% | 1008.4 hPa | 0 mm | - | - | - |
| 1777354957 | 22.22° C | 57% | 1008.7 hPa | 0 mm | - | - | - |
| 1777353157 | 22.78° C | 54% | 1009 hPa | 0 mm | - | - | - |
| 1777350457 | 22.78° C | 53% | 1009.7 hPa | 0 mm | - | - | - |
* Rain latest hour (hover to see other rain measurements)
** Current wind speed in m/s (hover to see current wind gust speed)